Time;durP1;ratioP1;P1;durP2;ratioP2;P2;SDS_P1;SDS_P2;PMS_P1;PMS_P2;Temp;Humidity;BMP_temperature;BMP_pressure;BME280_temperature;BME280_humidity;BME280_pressure;Samples;Min_cycle;Max_cycle;Signal;HPM_P1;HPM_P2
2022/12/10 00:01:30;;;;;;;37.05;27.45;;;;;;;1.75;90.10;100752.22;4996427;28;20061;-49
2022/12/10 00:03:58;;;;;;;33.53;26.50;;;;;;;1.77;90.15;100752.84;4991697;28;20437;-50
2022/12/10 00:06:33;;;;;;;34.67;27.13;;;;;;;1.75;89.71;100754.91;4995480;28;20093;-49
2022/12/10 00:09:02;;;;;;;32.97;26.33;;;;;;;1.67;89.58;100754.13;5011309;28;20108;-47
2022/12/10 00:11:30;;;;;;;33.42;26.88;;;;;;;1.64;90.03;100759.09;4991393;28;20042;-49
2022/12/10 00:13:58;;;;;;;37.08;27.23;;;;;;;1.60;90.22;100763.22;4964900;28;20454;-46
2022/12/10 00:16:27;;;;;;;38.50;26.90;;;;;;;1.56;90.14;100757.44;4997554;28;20042;-49
2022/12/10 00:18:55;;;;;;;35.47;27.50;;;;;;;1.54;90.54;100754.16;5008733;28;20065;-49
2022/12/10 00:21:26;;;;;;;35.67;27.40;;;;;;;1.53;90.84;100755.19;5015806;28;20448;-49
2022/12/10 00:23:55;;;;;;;36.53;28.45;;;;;;;1.54;90.83;100756.84;5004168;28;20055;-52
2022/12/10 00:26:28;;;;;;;34.00;26.15;;;;;;;1.57;91.04;100753.75;5010630;28;20046;-51
2022/12/10 00:28:56;;;;;;;32.97;25.23;;;;;;;1.64;91.45;100743.81;4960659;28;20050;-49
2022/12/10 00:31:30;;;;;;;34.83;27.40;;;;;;;1.68;91.08;100753.09;4992571;28;20408;-47
2022/12/10 00:34:01;;;;;;;35.80;27.42;;;;;;;1.64;90.55;100753.72;5015750;28;20054;-49
2022/12/10 00:36:32;;;;;;;34.40;26.65;;;;;;;1.59;90.39;100751.66;4995354;28;20105;-48
2022/12/10 00:39:00;;;;;;;33.85;26.83;;;;;;;1.55;90.70;100761.16;5004879;28;20442;-49
2022/12/10 00:41:29;;;;;;;32.90;25.60;;;;;;;1.54;91.22;100759.53;4998791;28;20162;-47
2022/12/10 00:43:56;;;;;;;32.95;24.83;;;;;;;1.57;91.45;100760.97;4968169;28;20043;-48
2022/12/10 00:46:24;;;;;;;35.97;28.23;;;;;;;1.55;91.56;100769.22;5004274;28;20038;-48
2022/12/10 00:48:52;;;;;;;34.97;27.35;;;;;;;1.52;90.83;100766.97;5003775;28;20046;-49
2022/12/10 00:51:22;;;;;;;35.90;27.67;;;;;;;1.47;90.90;100756.03;4991339;28;20050;-48
2022/12/10 00:53:51;;;;;;;36.47;27.92;;;;;;;1.44;91.26;100751.91;4979780;28;20050;-48
2022/12/10 00:56:21;;;;;;;36.10;27.83;;;;;;;1.44;91.23;100743.00;4993885;28;20499;-49
2022/12/10 00:58:50;;;;;;;38.92;28.52;;;;;;;1.42;91.27;100745.06;5005729;28;20065;-48
2022/12/10 01:01:21;;;;;;;36.72;28.65;;;;;;;1.40;91.33;100745.31;4998028;28;20045;-50
2022/12/10 01:03:51;;;;;;;37.00;27.55;;;;;;;1.39;91.50;100737.44;4984163;28;20126;-48
2022/12/10 01:06:23;;;;;;;35.78;27.10;;;;;;;1.44;91.89;100743.00;5005173;28;20054;-48
2022/12/10 01:08:53;;;;;;;35.97;27.83;;;;;;;1.45;91.34;100742.81;5007928;28;20416;-48
2022/12/10 01:11:22;;;;;;;38.97;29.27;;;;;;;1.42;91.28;100743.25;4976346;28;20054;-48
2022/12/10 01:13:49;;;;;;;35.80;27.42;;;;;;;1.41;91.19;100740.75;4996907;28;20050;-48
2022/12/10 01:16:22;;;;;;;39.55;29.13;;;;;;;1.39;91.40;100745.50;4992769;28;20072;-49
2022/12/10 01:18:54;;;;;;;41.08;29.45;;;;;;;1.36;91.40;100748.63;5004758;28;20046;-47
2022/12/10 01:21:22;;;;;;;38.03;28.58;;;;;;;1.35;91.48;100749.63;4977215;28;20034;-50
2022/12/10 01:23:51;;;;;;;39.05;26.83;;;;;;;1.35;91.77;100755.00;4995751;28;20117;-48
2022/12/10 01:26:22;;;;;;;41.15;29.20;;;;;;;1.36;91.59;100762.03;4986753;28;20042;-48
2022/12/10 01:28:50;;;;;;;40.97;29.02;;;;;;;1.34;91.68;100764.91;5010480;28;20042;-48
2022/12/10 01:31:21;;;;;;;40.10;30.00;;;;;;;1.35;91.78;100755.00;4968390;28;20043;-49
2022/12/10 01:33:50;;;;;;;39.88;28.70;;;;;;;1.37;92.00;100759.16;5006658;28;20104;-48
2022/12/10 01:36:27;;;;;;;33.38;24.67;;;;;;;1.41;92.04;100746.94;4969100;28;20504;-52
2022/12/10 01:38:55;;;;;;;36.83;27.63;;;;;;;1.42;91.53;100745.06;5006079;28;20049;-48
2022/12/10 01:41:25;;;;;;;41.13;28.55;;;;;;;1.42;91.58;100748.59;5005598;28;20162;-50
2022/12/10 01:43:58;;;;;;;39.35;27.38;;;;;;;1.42;91.70;100753.97;5008177;28;20054;-50
2022/12/10 01:46:29;;;;;;;35.03;24.25;;;;;;;1.42;91.66;100766.56;5006985;28;20034;-50
2022/12/10 01:48:58;;;;;;;39.00;27.30;;;;;;;1.41;91.58;100760.38;4991550;28;20053;-50
2022/12/10 01:51:28;;;;;;;44.22;29.05;;;;;;;1.41;91.73;100768.41;4992013;28;20062;-51
2022/12/10 01:53:56;;;;;;;40.35;28.73;;;;;;;1.40;91.51;100777.53;5003738;28;20096;-51
2022/12/10 01:56:24;;;;;;;40.72;28.98;;;;;;;1.41;91.69;100775.66;4986999;28;20088;-50
2022/12/10 01:58:54;;;;;;;33.03;24.10;;;;;;;1.44;91.88;100777.91;4983524;28;20050;-48
2022/12/10 02:01:28;;;;;;;38.75;28.98;;;;;;;1.45;91.32;100776.91;4993541;28;20560;-49
2022/12/10 02:04:08;;;;;;;37.55;29.02;;;;;;;1.41;91.51;100770.28;4989971;28;20057;-50
2022/12/10 02:06:48;;;;;;;38.45;29.27;;;;;;;1.39;91.86;100772.34;5008544;28;20042;-48
2022/12/10 02:09:49;;;;;;;38.97;28.98;;;;;;;1.42;92.00;100769.22;4977382;28;20042;-48
2022/12/10 02:12:42;;;;;;;41.70;29.83;;;;;;;1.38;91.66;100776.91;4966379;28;20045;-47
2022/12/10 02:15:16;;;;;;;42.67;30.05;;;;;;;1.35;91.56;100777.31;4984517;28;20038;-48
2022/12/10 02:17:59;;;;;;;40.30;29.80;;;;;;;1.32;91.91;100772.34;4978453;28;20039;-48
2022/12/10 02:20:36;;;;;;;36.55;28.45;;;;;;;1.30;91.83;100769.06;4967867;28;20058;-47
2022/12/10 02:23:18;;;;;;;38.13;29.35;;;;;;;1.30;92.15;100773.59;4968796;28;20050;-49
2022/12/10 02:25:49;;;;;;;39.25;29.98;;;;;;;1.26;92.46;100767.81;4981283;28;20105;-48
2022/12/10 02:28:32;;;;;;;36.17;26.63;;;;;;;1.28;92.46;100765.75;4987884;28;20100;-47
2022/12/10 02:31:00;;;;;;;36.92;28.23;;;;;;;1.31;92.60;100769.88;4991994;28;20097;-46
2022/12/10 02:33:31;;;;;;;41.28;29.48;;;;;;;1.31;92.36;100770.72;4968756;28;20081;-47
2022/12/10 02:35:59;;;;;;;32.60;25.63;;;;;;;1.32;92.58;100766.97;4981225;28;20141;-46
2022/12/10 02:38:30;;;;;;;40.97;29.48;;;;;;;1.34;92.56;100766.78;4992877;28;20114;-49
2022/12/10 02:41:14;;;;;;;40.20;30.00;;;;;;;1.34;92.66;100769.47;4977319;28;20042;-47
2022/12/10 02:43:45;;;;;;;40.65;29.58;;;;;;;1.32;92.37;100771.53;5000886;28;20047;-49
2022/12/10 02:46:12;;;;;;;35.72;25.92;;;;;;;1.32;92.57;100772.34;4965203;28;20042;-48
2022/12/10 02:48:41;;;;;;;39.08;28.95;;;;;;;1.34;92.58;100764.09;5003340;28;20049;-48
2022/12/10 02:51:09;;;;;;;36.78;28.00;;;;;;;1.31;92.21;100765.34;4977002;28;20034;-49
2022/12/10 02:53:43;;;;;;;38.67;29.10;;;;;;;1.30;92.52;100762.84;4979459;28;20498;-48
2022/12/10 02:56:32;;;;;;;40.60;30.15;;;;;;;1.26;92.49;100770.50;4975272;28;20497;-47
2022/12/10 02:59:28;;;;;;;38.80;29.25;;;;;;;1.27;92.93;100775.69;4974264;28;20059;-47
2022/12/10 03:02:10;;;;;;;41.00;29.45;;;;;;;1.28;92.59;100774.63;4972877;28;20070;-46
2022/12/10 03:04:55;;;;;;;37.97;27.90;;;;;;;1.28;92.57;100771.94;4961658;28;20046;-48
2022/12/10 03:07:32;;;;;;;39.03;29.33;;;;;;;1.24;92.82;100770.72;4973273;28;20050;-48
2022/12/10 03:10:28;;;;;;;38.92;29.98;;;;;;;1.18;92.47;100782.28;4973942;28;20057;-47
2022/12/10 03:13:00;;;;;;;40.65;30.17;;;;;;;1.13;92.59;100771.34;4945672;28;20046;-47
2022/12/10 03:15:31;;;;;;;41.88;28.73;;;;;;;1.13;92.94;100770.50;4954085;28;20048;-48
2022/12/10 03:18:01;;;;;;;40.85;31.15;;;;;;;1.09;93.21;100767.44;4957869;28;20045;-48
2022/12/10 03:20:31;;;;;;;39.03;27.88;;;;;;;1.08;93.49;100771.13;4973039;28;20043;-47
2022/12/10 03:22:59;;;;;;;39.55;28.90;;;;;;;1.08;93.36;100765.75;4973214;28;20047;-49
2022/12/10 03:25:29;;;;;;;33.08;24.98;;;;;;;1.09;93.30;100772.78;4961418;28;20042;-47
2022/12/10 03:27:59;;;;;;;41.88;30.25;;;;;;;1.09;93.18;100774.66;4960863;28;20510;-48
2022/12/10 03:30:27;;;;;;;39.75;29.58;;;;;;;1.09;93.19;100767.44;4971373;28;20066;-48
2022/12/10 03:32:54;;;;;;;41.40;30.00;;;;;;;1.07;93.29;100772.16;4972663;28;20123;-48
2022/12/10 03:35:24;;;;;;;42.35;30.48;;;;;;;1.06;93.19;100771.34;4961361;28;20039;-47
2022/12/10 03:37:51;;;;;;;41.80;29.90;;;;;;;1.03;93.11;100777.13;4962676;28;20054;-50
2022/12/10 03:40:24;;;;;;;41.38;30.23;;;;;;;1.04;93.33;100780.63;4954356;28;20528;-46
2022/12/10 03:42:52;;;;;;;41.50;28.70;;;;;;;1.07;93.30;100777.53;4972628;28;20066;-48
2022/12/10 03:45:20;;;;;;;41.92;30.33;;;;;;;1.09;93.11;100767.44;4962715;28;20482;-47
2022/12/10 03:47:49;;;;;;;41.58;29.45;;;;;;;1.15;93.41;100777.31;4961561;28;20130;-47
2022/12/10 03:50:17;;;;;;;42.85;31.35;;;;;;;1.18;93.34;100779.59;4972651;28;20042;-48
2022/12/10 03:52:44;;;;;;;39.72;29.90;;;;;;;1.17;92.51;100771.75;4960307;28;20059;-47
2022/12/10 03:55:12;;;;;;;40.42;30.20;;;;;;;1.13;92.63;100778.56;4959910;28;20058;-48
2022/12/10 03:57:40;;;;;;;39.33;29.02;;;;;;;1.12;92.95;100782.28;4977933;28;20509;-47
2022/12/10 04:00:08;;;;;;;43.33;30.80;;;;;;;1.09;92.99;100778.16;4992343;28;20049;-48
2022/12/10 04:02:38;;;;;;;36.78;26.23;;;;;;;1.06;92.97;100773.22;4993771;28;20046;-48
2022/12/10 04:05:07;;;;;;;41.13;29.88;;;;;;;1.06;93.21;100775.91;4985415;28;20046;-46
2022/12/10 04:07:35;;;;;;;43.40;30.65;;;;;;;1.03;93.03;100785.19;4976137;28;20047;-47
2022/12/10 04:10:03;;;;;;;45.90;30.33;;;;;;;1.02;93.19;100790.75;4980693;28;20040;-48
2022/12/10 04:12:31;;;;;;;38.15;27.30;;;;;;;1.01;93.18;100797.13;4992961;28;20077;-48
2022/12/10 04:17:45;;;;;;;35.17;25.13;;;;;;;1.02;93.34;100790.75;4992639;28;20046;-47
2022/12/10 04:28:31;;;;;;;38.28;29.05;;;;;;;1.03;93.55;100800.44;4968383;28;20051;-47
2022/12/10 04:30:58;;;;;;;40.05;30.52;;;;;;;0.90;93.70;100795.06;4995106;28;20035;-49
2022/12/10 04:33:26;;;;;;;41.30;30.90;;;;;;;0.82;94.42;100799.59;4992366;28;20062;-50
2022/12/10 04:35:54;;;;;;;33.90;25.85;;;;;;;0.84;95.01;100799.38;4981668;28;20042;-45
2022/12/10 04:38:21;;;;;;;41.58;31.35;;;;;;;0.88;95.14;100791.75;4995997;28;20122;-46
2022/12/10 04:40:49;;;;;;;43.92;32.00;;;;;;;0.82;95.18;100794.25;4968662;28;20053;-45
2022/12/10 04:43:16;;;;;;;47.60;35.13;;;;;;;0.79;95.54;100800.00;4983902;28;20045;-46
2022/12/10 04:45:44;;;;;;;43.58;31.48;;;;;;;0.80;96.00;100796.28;4981913;28;20049;-46
2022/12/10 04:48:12;;;;;;;50.15;34.53;;;;;;;0.83;95.69;100798.56;4996131;28;20200;-47
2022/12/10 04:50:39;;;;;;;36.38;26.25;;;;;;;0.89;96.61;100804.13;4995921;28;20054;-50
2022/12/10 04:53:08;;;;;;;51.92;36.90;;;;;;;0.85;96.30;100801.88;4992371;28;20489;-48
2022/12/10 04:55:35;;;;;;;54.88;39.20;;;;;;;0.86;96.50;100805.38;4976518;28;20047;-49
2022/12/10 04:58:03;;;;;;;50.03;35.45;;;;;;;0.86;96.67;100802.69;5004440;28;20057;-48
2022/12/10 05:00:31;;;;;;;49.55;37.72;;;;;;;0.87;97.19;100803.50;5015392;28;20042;-47
2022/12/10 05:02:58;;;;;;;42.38;30.75;;;;;;;0.88;97.19;100803.31;5013440;28;20049;-47
2022/12/10 05:05:26;;;;;;;40.05;30.10;;;;;;;0.94;98.16;100804.34;5002556;28;20046;-49
2022/12/10 05:07:53;;;;;;;50.85;37.63;;;;;;;0.84;97.80;100808.28;5014108;28;20037;-48
2022/12/10 05:10:21;;;;;;;47.53;35.05;;;;;;;0.82;97.42;100810.34;4997693;28;20415;-48
2022/12/10 05:12:48;;;;;;;47.42;33.90;;;;;;;0.85;98.05;100812.59;5014965;28;20511;-51
2022/12/10 05:15:16;;;;;;;51.78;36.92;;;;;;;0.89;98.06;100809.50;5012019;28;20041;-50
2022/12/10 05:17:44;;;;;;;49.53;35.13;;;;;;;0.90;98.01;100809.31;5005491;28;20047;-49
2022/12/10 05:20:11;;;;;;;42.75;30.50;;;;;;;0.94;98.44;100802.50;5014805;28;20480;-45
2022/12/10 05:25:25;;;;;;;;;;;;;;;1.00;100.00;100806.22;5013004;28;20042;-48
2022/12/10 05:27:53;;;;;;;42.95;30.20;;;;;;;1.05;100.00;100801.06;5009204;28;19921;-47
2022/12/10 05:30:20;;;;;;;40.95;29.27;;;;;;;1.06;100.00;100808.09;5013206;28;20069;-48
2022/12/10 05:32:48;;;;;;;47.60;33.85;;;;;;;1.03;99.69;100811.16;5009499;28;20485;-49
2022/12/10 05:35:15;;;;;;;45.83;33.17;;;;;;;1.00;99.42;100809.72;5000241;28;20501;-49
2022/12/10 05:37:43;;;;;;;55.20;39.50;;;;;;;0.98;99.29;100813.63;5003327;28;20041;-47
2022/12/10 05:40:11;;;;;;;52.70;37.88;;;;;;;0.98;99.65;100817.13;4991425;28;20050;-48
2022/12/10 05:42:39;;;;;;;56.88;40.90;;;;;;;0.94;99.25;100812.38;4989011;28;20038;-48
2022/12/10 05:45:07;;;;;;;57.42;41.38;;;;;;;0.92;99.15;100814.47;5014183;28;20100;-47
2022/12/10 05:47:35;;;;;;;48.92;35.22;;;;;;;0.93;99.22;100810.75;4991668;28;20046;-47
2022/12/10 05:50:03;;;;;;;56.25;38.92;;;;;;;0.92;99.62;100809.09;4978516;28;20043;-48
2022/12/10 05:52:32;;;;;;;59.17;41.25;;;;;;;0.94;99.63;100801.66;4995084;28;20132;-49
2022/12/10 05:54:59;;;;;;;57.15;38.17;;;;;;;0.92;99.53;100809.94;5013031;28;20038;-48
2022/12/10 05:57:27;;;;;;;54.22;38.05;;;;;;;0.92;99.49;100814.47;5014062;28;20050;-51
2022/12/10 05:59:55;;;;;;;55.53;37.78;;;;;;;0.92;99.61;100806.44;5000080;28;20089;-51
2022/12/10 06:02:22;;;;;;;57.58;39.65;;;;;;;0.89;99.44;100809.50;5009491;28;20053;-53
2022/12/10 06:04:50;;;;;;;58.25;40.60;;;;;;;0.87;99.56;100811.56;5013791;28;20045;-49
2022/12/10 06:07:17;;;;;;;50.42;33.50;;;;;;;0.89;100.00;100813.03;5013771;28;20044;-48
2022/12/10 06:09:45;;;;;;;48.35;33.63;;;;;;;0.97;100.00;100817.38;5007575;28;20373;-49
2022/12/10 06:12:13;;;;;;;55.45;39.17;;;;;;;0.97;100.00;100809.31;5002328;28;20093;-49
2022/12/10 06:14:40;;;;;;;58.30;40.20;;;;;;;0.92;100.00;100806.44;5010881;28;20097;-51
2022/12/10 06:17:08;;;;;;;51.88;36.67;;;;;;;0.88;100.00;100805.19;5013617;28;20057;-52
2022/12/10 06:19:37;;;;;;;56.55;40.80;;;;;;;0.88;100.00;100818.59;4998058;28;20071;-50
2022/12/10 06:22:04;;;;;;;58.50;41.75;;;;;;;0.82;100.00;100813.00;5005293;28;20382;-51
2022/12/10 06:24:33;;;;;;;44.45;30.70;;;;;;;0.88;100.00;100818.59;4981599;28;20051;-51
2022/12/10 06:27:00;;;;;;;58.78;41.22;;;;;;;0.86;100.00;100821.47;5010266;28;20042;-49
2022/12/10 06:29:28;;;;;;;53.50;38.75;;;;;;;0.79;100.00;100823.31;4985084;28;20073;-52
2022/12/10 06:31:55;;;;;;;54.65;38.22;;;;;;;0.74;100.00;100825.78;4975231;28;20042;-52
2022/12/10 06:34:23;;;;;;;54.03;37.33;;;;;;;0.72;100.00;100828.69;4993504;28;20096;-50
2022/12/10 06:36:50;;;;;;;57.67;40.45;;;;;;;0.65;100.00;100833.19;5011851;28;20077;-52
2022/12/10 06:39:18;;;;;;;59.25;41.53;;;;;;;0.54;100.00;100833.78;4980501;28;20085;-50
2022/12/10 06:41:46;;;;;;;59.03;41.58;;;;;;;0.44;100.00;100839.53;5007113;28;20488;-51
2022/12/10 06:44:13;;;;;;;60.25;43.00;;;;;;;0.38;100.00;100840.31;5013137;28;20492;-49
2022/12/10 06:46:41;;;;;;;59.50;41.75;;;;;;;0.35;100.00;100835.34;5012946;28;20504;-50
2022/12/10 06:49:09;;;;;;;61.10;42.88;;;;;;;0.38;100.00;100835.75;5006663;28;20042;-49
2022/12/10 06:51:38;;;;;;;59.38;42.05;;;;;;;0.42;100.00;100834.34;4995585;28;20046;-50
2022/12/10 06:54:05;;;;;;;60.58;42.75;;;;;;;0.44;100.00;100831.47;5009444;28;20042;-49
2022/12/10 06:56:33;;;;;;;63.35;43.85;;;;;;;0.47;100.00;100835.59;5001466;28;20045;-53
2022/12/10 06:59:07;;;;;;;59.30;40.90;;;;;;;0.53;100.00;100832.97;5014184;28;20066;-51
2022/12/10 07:01:34;;;;;;;58.78;40.53;;;;;;;0.56;100.00;100837.91;4987486;28;20042;-52
2022/12/10 07:04:02;;;;;;;47.78;33.80;;;;;;;0.61;100.00;100839.97;5012764;28;20096;-51
2022/12/10 07:06:32;;;;;;;46.40;31.17;;;;;;;0.68;100.00;100835.47;5012952;28;20045;-50
2022/12/10 07:09:00;;;;;;;52.10;35.15;;;;;;;0.70;100.00;100844.13;4995672;28;20048;-50
2022/12/10 07:11:27;;;;;;;59.40;40.22;;;;;;;0.72;100.00;100844.78;4995683;28;20042;-46
2022/12/10 07:13:56;;;;;;;63.35;42.05;;;;;;;0.73;100.00;100849.09;5003402;28;20484;-49
2022/12/10 07:16:31;;;;;;;63.00;41.47;;;;;;;0.75;100.00;100852.41;5007003;28;20049;-48
2022/12/10 07:19:00;;;;;;;63.63;41.88;;;;;;;0.77;100.00;100855.72;5012669;28;20060;-49
2022/12/10 07:21:31;;;;;;;60.60;41.00;;;;;;;0.74;100.00;100860.63;4995213;28;20417;-48
2022/12/10 07:24:02;;;;;;;63.03;42.22;;;;;;;0.70;100.00;100865.59;4987813;28;20141;-52
2022/12/10 07:26:32;;;;;;;50.88;34.92;;;;;;;0.72;100.00;100860.84;4997981;28;20327;-49
2022/12/10 07:29:01;;;;;;;50.58;34.72;;;;;;;0.77;100.00;100866.44;5012812;28;20049;-50
2022/12/10 07:31:28;;;;;;;43.50;27.90;;;;;;;0.86;100.00;100859.00;5013746;28;20057;-53
2022/12/10 07:33:58;;;;;;;59.15;39.95;;;;;;;0.84;100.00;100864.59;5009998;28;20042;-48
2022/12/10 07:36:26;;;;;;;61.45;40.15;;;;;;;0.80;100.00;100862.53;4979231;28;20042;-51
2022/12/10 07:38:54;;;;;;;57.65;39.53;;;;;;;0.76;100.00;100872.81;4987000;28;20501;-49
2022/12/10 07:41:23;;;;;;;60.72;39.53;;;;;;;0.72;100.00;100876.94;4980293;28;20064;-48
2022/12/10 07:43:51;;;;;;;57.50;39.55;;;;;;;0.68;100.00;100889.09;5012963;28;20112;-48
2022/12/10 07:46:25;;;;;;;52.53;36.90;;;;;;;0.65;100.00;100886.81;5014067;28;20049;-52
2022/12/10 07:48:52;;;;;;;51.25;34.30;;;;;;;0.69;100.00;100885.38;5017716;28;20050;-52
2022/12/10 07:51:22;;;;;;;52.63;35.00;;;;;;;0.69;100.00;100890.72;4993253;28;20042;-51
2022/12/10 07:53:52;;;;;;;42.35;28.92;;;;;;;0.71;100.00;100891.38;4995871;28;20041;-48
2022/12/10 07:56:21;;;;;;;44.67;29.27;;;;;;;0.74;100.00;100890.13;4997632;28;20496;-52
2022/12/10 07:58:48;;;;;;;28.15;16.95;;;;;;;0.83;100.00;100889.75;5004349;28;20590;-50
2022/12/10 08:01:22;;;;;;;35.65;25.30;;;;;;;1.02;100.00;100895.38;5012409;28;20453;-49
2022/12/10 08:03:50;;;;;;;41.97;29.85;;;;;;;0.95;100.00;100889.16;5008200;28;20080;-52
2022/12/10 08:06:20;;;;;;;42.78;29.30;;;;;;;0.91;100.00;100899.47;5010449;28;20048;-49
2022/12/10 08:08:48;;;;;;;46.83;32.38;;;;;;;0.86;100.00;100901.94;4998910;28;20038;-50
2022/12/10 08:11:18;;;;;;;40.55;27.23;;;;;;;0.83;100.00;100900.47;4970190;28;20502;-47
2022/12/10 08:13:46;;;;;;;45.00;32.00;;;;;;;0.74;100.00;100904.38;4995097;28;20049;-51
2022/12/10 08:16:28;;;;;;;49.60;34.78;;;;;;;0.73;100.00;100912.63;4986880;28;20568;-49
2022/12/10 08:18:57;;;;;;;47.50;33.92;;;;;;;0.69;100.00;100912.19;4999246;28;20137;-52
2022/12/10 08:21:28;;;;;;;47.03;33.28;;;;;;;0.67;100.00;100911.56;4997556;28;20038;-47
2022/12/10 08:23:56;;;;;;;46.30;33.75;;;;;;;0.67;100.00;100914.25;5005884;28;20044;-47
2022/12/10 08:26:26;;;;;;;49.00;34.97;;;;;;;0.66;100.00;100914.47;4998325;28;20096;-51
2022/12/10 08:28:54;;;;;;;47.33;32.88;;;;;;;0.68;100.00;100921.28;4990892;28;20464;-50
2022/12/10 08:31:23;;;;;;;49.50;33.42;;;;;;;0.70;100.00;100918.38;5008496;28;20084;-50
2022/12/10 08:33:51;;;;;;;47.58;33.88;;;;;;;0.68;100.00;100920.44;4998470;28;20076;-54
2022/12/10 08:36:19;;;;;;;47.75;33.35;;;;;;;0.68;100.00;100925.81;5008222;28;20030;-47
2022/12/10 08:38:47;;;;;;;48.05;33.70;;;;;;;0.67;100.00;100924.16;5012717;28;20038;-49
2022/12/10 08:41:20;;;;;;;49.00;34.05;;;;;;;0.67;100.00;100924.97;5007247;28;20035;-51
2022/12/10 08:43:48;;;;;;;47.30;32.90;;;;;;;0.69;100.00;100933.63;4981240;28;20367;-50
2022/12/10 08:46:16;;;;;;;50.00;33.25;;;;;;;0.70;100.00;100929.94;5015480;28;20483;-52
2022/12/10 08:48:44;;;;;;;52.38;35.85;;;;;;;0.71;100.00;100936.13;5015197;28;20064;-49
2022/12/10 08:51:15;;;;;;;49.13;32.75;;;;;;;0.72;100.00;100933.25;5011634;28;20497;-50
2022/12/10 08:53:44;;;;;;;54.13;37.30;;;;;;;0.72;100.00;100933.25;4978716;28;20071;-51
2022/12/10 08:56:12;;;;;;;45.22;29.83;;;;;;;0.76;100.00;100936.34;4984791;28;20046;-50
2022/12/10 08:58:39;;;;;;;56.80;36.65;;;;;;;0.78;100.00;100932.44;5014894;28;20496;-49
2022/12/10 09:01:17;;;;;;;32.05;20.70;;;;;;;0.84;100.00;100937.03;4997448;28;20048;-49
2022/12/10 09:03:45;;;;;;;46.72;30.35;;;;;;;0.97;100.00;100938.09;5007633;28;20124;-47
2022/12/10 09:06:15;;;;;;;40.47;25.25;;;;;;;1.13;100.00;100939.56;5015154;28;20041;-48
2022/12/10 09:08:43;;;;;;;42.65;27.90;;;;;;;1.14;100.00;100936.69;5015186;28;20041;-50
2022/12/10 09:11:23;;;;;;;43.15;29.30;;;;;;;1.18;100.00;100937.94;4992094;28;20047;-50
2022/12/10 09:13:51;;;;;;;60.38;38.88;;;;;;;1.08;100.00;100939.34;4977959;28;20488;-47
2022/12/10 09:16:18;;;;;;;53.25;37.17;;;;;;;0.94;100.00;100943.84;5002507;28;20162;-49
2022/12/10 09:18:46;;;;;;;47.10;32.25;;;;;;;0.90;100.00;100943.41;5014845;28;20062;-47
2022/12/10 09:21:16;;;;;;;51.63;35.55;;;;;;;0.92;100.00;100954.78;5011645;28;20053;-49
2022/12/10 09:23:44;;;;;;;28.27;17.30;;;;;;;1.10;100.00;100948.84;4996877;28;20416;-52
2022/12/10 09:26:14;;;;;;;40.80;28.05;;;;;;;1.28;100.00;100950.97;5014918;28;20177;-49
2022/12/10 09:28:43;;;;;;;43.15;28.77;;;;;;;1.27;100.00;100955.50;5001046;28;20038;-49
2022/12/10 09:31:12;;;;;;;38.30;26.35;;;;;;;1.20;100.00;100961.88;5006911;28;20046;-49
2022/12/10 09:33:49;;;;;;;56.50;37.67;;;;;;;1.14;100.00;100963.50;4982662;28;20038;-49
2022/12/10 09:36:16;;;;;;;72.05;47.53;;;;;;;0.88;100.00;100974.97;5014630;28;20042;-51
2022/12/10 09:38:45;;;;;;;74.25;46.85;;;;;;;0.69;100.00;100965.81;4997421;28;20049;-52
2022/12/10 09:41:49;;;;;;;54.75;36.75;;;;;;;0.78;100.00;100971.84;5009770;28;20042;-52
2022/12/10 09:44:52;;;;;;;53.55;32.90;;;;;;;1.07;100.00;100973.41;4994046;28;20042;-54
2022/12/10 09:47:29;;;;;;;63.92;41.50;;;;;;;1.03;100.00;100973.00;4899867;29;20456;-50
2022/12/10 09:50:00;;;;;;;52.40;33.38;;;;;;;1.06;100.00;100969.91;4983455;28;20112;-51
2022/12/10 09:52:35;;;;;;;69.03;45.20;;;;;;;1.05;100.00;100978.13;4992913;28;20076;-49
2022/12/10 09:55:19;;;;;;;59.58;38.88;;;;;;;1.07;100.00;100973.41;4977268;28;20409;-50
2022/12/10 09:57:51;;;;;;;49.13;33.55;;;;;;;1.08;100.00;100967.00;5013848;28;20547;-49
2022/12/10 10:00:33;;;;;;;52.50;34.92;;;;;;;1.08;100.00;100975.03;4997294;28;20034;-50
2022/12/10 10:03:01;;;;;;;47.65;30.95;;;;;;;1.15;100.00;100969.69;4996537;28;20134;-45
2022/12/10 10:05:33;;;;;;;50.60;31.83;;;;;;;1.20;100.00;100972.59;4973210;28;20050;-51
2022/12/10 10:08:03;;;;;;;64.65;41.58;;;;;;;1.14;100.00;100982.31;4979526;28;20038;-52
2022/12/10 10:10:33;;;;;;;58.30;38.05;;;;;;;1.09;100.00;100979.41;4982725;28;20038;-52
2022/12/10 10:13:36;;;;;;;48.50;31.20;;;;;;;1.09;100.00;100982.09;5002767;28;20037;-53
2022/12/10 10:16:27;;;;;;;61.75;39.72;;;;;;;1.09;100.00;100983.94;5009887;28;20030;-48
2022/12/10 10:19:05;;;;;;;45.17;28.67;;;;;;;1.11;100.00;100984.53;4988525;28;20121;-49
2022/12/10 10:21:51;;;;;;;50.88;33.78;;;;;;;1.15;100.00;100978.56;4985850;28;20472;-48
2022/12/10 10:24:41;;;;;;;66.65;42.08;;;;;;;1.09;100.00;100979.41;5010834;28;20045;-50
2022/12/10 10:27:17;;;;;;;60.40;38.65;;;;;;;1.02;100.00;100982.06;4999209;28;20424;-50
2022/12/10 10:29:47;;;;;;;;;;;;;;;0.98;100.00;100979.97;4985315;28;20096;-50
2022/12/10 10:32:35;;;;;;;64.00;39.80;;;;;;;0.94;100.00;100979.56;4982563;28;19929;-50
2022/12/10 10:35:04;;;;;;;62.08;39.03;;;;;;;0.94;100.00;100989.44;4968095;28;20043;-52
2022/12/10 10:37:41;;;;;;;65.80;40.53;;;;;;;0.94;100.00;100992.13;4968248;28;20051;-50
2022/12/10 10:40:28;;;;;;;66.63;41.35;;;;;;;0.93;100.00;100985.13;4986173;28;20030;-52
2022/12/10 10:42:57;;;;;;;50.63;30.27;;;;;;;0.98;100.00;100974.59;4980964;28;20050;-48
2022/12/10 10:45:36;;;;;;;51.40;32.35;;;;;;;1.02;100.00;100979.38;4979480;28;20054;-50
2022/12/10 10:48:25;;;;;;;70.80;43.08;;;;;;;1.03;100.00;100983.72;4994462;28;20033;-49
2022/12/10 10:51:11;;;;;;;61.53;38.55;;;;;;;1.10;100.00;100978.34;5002172;28;20049;-47
2022/12/10 10:53:46;;;;;;;61.90;39.85;;;;;;;1.04;100.00;100971.13;5006421;28;20042;-50
2022/12/10 10:56:20;;;;;;;53.65;32.20;;;;;;;1.13;100.00;100971.75;4981194;28;20076;-49
2022/12/10 10:58:57;;;;;;;57.63;37.38;;;;;;;1.12;100.00;100976.31;4993000;28;20214;-50
2022/12/10 11:01:27;;;;;;;65.90;39.30;;;;;;;1.05;100.00;100981.63;5010446;28;20136;-49
2022/12/10 11:03:58;;;;;;;64.60;39.28;;;;;;;1.06;100.00;100977.13;4985028;28;20042;-51
2022/12/10 11:06:26;;;;;;;66.57;40.15;;;;;;;1.04;100.00;100973.81;4980667;28;20540;-48
2022/12/10 11:08:57;;;;;;;67.10;40.15;;;;;;;1.00;100.00;100970.69;4992263;28;20048;-50
2022/12/10 11:11:37;;;;;;;63.40;39.47;;;;;;;1.07;100.00;100973.41;5001679;28;20045;-50
2022/12/10 11:14:29;;;;;;;70.80;41.65;;;;;;;1.15;100.00;100975.88;4985156;28;20038;-49
2022/12/10 11:17:10;;;;;;;70.03;43.63;;;;;;;1.21;100.00;100968.91;4986414;28;20060;-49
2022/12/10 11:19:53;;;;;;;67.28;40.17;;;;;;;1.27;100.00;100966.25;4989374;28;20050;-52
2022/12/10 11:22:23;;;;;;;62.83;39.08;;;;;;;1.30;100.00;100966.84;4972129;28;20054;-52
2022/12/10 11:24:51;;;;;;;62.33;39.80;;;;;;;1.24;100.00;100972.00;5012992;28;20408;-53
2022/12/10 11:27:56;;;;;;;62.63;39.90;;;;;;;1.07;100.00;100978.78;5015204;28;20041;-50
2022/12/10 11:30:26;;;;;;;68.38;39.08;;;;;;;1.02;100.00;100970.50;4979799;28;20045;-48
2022/12/10 11:33:16;;;;;;;45.33;28.98;;;;;;;1.14;100.00;100978.78;5003977;28;20042;-51
2022/12/10 11:36:01;;;;;;;50.70;32.05;;;;;;;1.20;100.00;100978.81;5000246;28;20092;-49
2022/12/10 11:38:48;;;;;;;56.53;33.97;;;;;;;1.20;100.00;100970.78;5008839;28;20046;-49
2022/12/10 11:41:19;;;;;;;53.15;33.65;;;;;;;1.19;100.00;100966.41;5012186;28;20309;-49
2022/12/10 11:44:07;;;;;;;42.75;25.58;;;;;;;1.28;100.00;100970.56;4999083;28;20038;-51
2022/12/10 11:46:46;;;;;;;42.08;25.50;;;;;;;1.46;100.00;100969.16;5016591;28;20524;-53
2022/12/10 11:49:35;;;;;;;60.90;36.00;;;;;;;1.34;100.00;100968.09;5011670;28;20527;-50